首页
METAR-TAF:

METAR-TAF

机场 :

馬紹爾群島國際機場

馬久羅, 馬紹爾群島

纬度: 07-04N, 经度: 171-17E, 海拔: 2米

当前天气观测

该预报发布于2小时和52分钟前的22:52 UTC
风速10节,风向
温度 29°C
湿度 79%
气压 1012 hPa
能見度: 24.1公里
少量云层高于1500英尺
散云层高于5000英尺
多云层高于30000英尺

METAR: PKMJ 062252Z 18010KT 15SM FEW015 SCT050 BKN300 29/25 A2987 RMK LAST

时间: 13:44 (01:44 UTC)

预报

该预报发布于2小时和9分钟前的23:35 UTC
预报有效从07日的 00点(UTC)到 07日的 24点(UTC)
风速11节,风向南转南东
能見度: 10公里
少量云层高于1500英尺
散云层高于5000英尺
从 07日的 0600点(UTC)
风速11节,风向
能見度: 10公里
少量云层高于1500英尺
散云层高于5000英尺
附近有阵雨

TAF: PKMJ 062335Z 0700/0724 16011KT P6SM FEW015 SCT050 FM070600 09011KT P6SM VCSH FEW015 SCT050

超过4000个机场的气象观测和天气预报(METAR&TAF报告)。

可查询的气象台以黄色和红色小点在地图上表示。

将鼠标移到小点上方,可查看气象台名称。

然后点击查看天气观测和预报。

如需切换地图:点击带黑十字的绿色按钮放大地图;点击带横线的绿色按钮缩小地图;或者点击绿色箭头查看邻近地区的地图。


METAR-TAF: